Coates, United Kingdom
Current Conditions -  °F | °C
As of 4:58 PM on Friday 19 Dec 2014 (Local Time) from EGVA Reporting Station
Scattered Clouds Scattered Clouds  
Wind Chill:   Ceiling: Unl
Heat Index:   Visibility: 6mi
Dew Point:   Wind: 9mph
Humidity: 82%   Direction: 240°WSW
Pressure: 30.11"   Gusts: NA
Location:  51.71°N, 2.03°W
Report Text: EGVA 191658Z AUTO 24008KT 9999 SCT046 05/02 A3011 RMK AO2 SLP202 T00520023
Loading
Personal Weather Stations






























Interactive Weather Map New forecast layout! Learn more

10-Day Weather Forecast

Advertisements
Track Severe Weather on mobile